FLUGWETTER MÜNCHEN AIRPORT

[source: ADDS]
METAR
EDDM 221150Z VRB01KT 2500 BR FEW001 M10/M12 Q1024 R08L/290095 R08R/190094 BECMG 3000 =
TAF
TAF EDDM 221100Z 2212/2318 09003KT 2000 BR SCT003 BECMG 2212/2214 4000 BR BECMG 2221/2224 24005KT 0500 FZFG VV001 TEMPO 2300/2307 0300 FZFG BECMG 2308/2310 4000 BR BKN004 PROB30 TEMPO 2310/2315 6000 SCT006 BECMG 2313/2315 32005KT =
SR / SS: 06:53 / 15:58 UTC (Tag 2017-01-22)

QR-Code dieser Seite

QR-Code dieser Seite